createdAt,value
2018-04-14T00:00:47.154Z,10.21
2018-04-14T00:01:47.156Z,10.19
2018-04-14T00:02:47.157Z,10.23
2018-04-14T00:03:47.130Z,10.24
2018-04-14T00:04:47.132Z,10.2
2018-04-14T00:05:47.141Z,10.2
2018-04-14T00:06:47.133Z,10.2
2018-04-14T00:07:47.123Z,10.23
2018-04-14T00:08:47.119Z,10.23
2018-04-14T00:09:47.121Z,10.23
2018-04-14T00:10:47.144Z,10.23
2018-04-14T00:11:47.151Z,10.21
2018-04-14T00:12:47.133Z,10.19
2018-04-14T00:13:47.129Z,10.19
2018-04-14T00:14:47.113Z,10.19
2018-04-14T00:15:47.141Z,10.2
2018-04-14T00:16:47.134Z,10.16
2018-04-14T00:17:47.122Z,10.16
2018-04-14T00:18:47.151Z,10.17
2018-04-14T00:19:47.113Z,10.13
2018-04-14T00:20:47.145Z,10.11
2018-04-14T00:21:47.098Z,10.11
2018-04-14T00:22:47.115Z,10.11
2018-04-14T00:23:47.130Z,10.13
2018-04-14T00:24:47.144Z,10.1
2018-04-14T00:25:47.115Z,10.06
2018-04-14T00:26:47.131Z,10.06
2018-04-14T00:27:47.100Z,10.04
2018-04-14T00:28:47.273Z,10.03
2018-04-14T00:29:47.099Z,10.04
2018-04-14T00:30:47.106Z,10.02
2018-04-14T00:31:47.102Z,10.06
2018-04-14T00:32:47.156Z,10.03
2018-04-14T00:33:47.098Z,9.99
2018-04-14T00:34:47.093Z,10
2018-04-14T00:35:47.092Z,10.02
2018-04-14T00:36:47.209Z,10.03
2018-04-14T00:37:47.088Z,10.02
2018-04-14T00:38:47.073Z,10.04
2018-04-14T00:39:47.097Z,10
2018-04-14T00:40:47.247Z,10
2018-04-14T00:41:47.102Z,10
2018-04-14T00:42:47.098Z,9.99
2018-04-14T00:43:47.082Z,9.99
2018-04-14T00:44:47.095Z,9.94
2018-04-14T00:45:47.088Z,9.96
2018-04-14T00:46:47.080Z,9.94
2018-04-14T00:47:47.062Z,9.92
2018-04-14T00:48:47.337Z,9.92
2018-04-14T00:49:47.093Z,9.9
2018-04-14T00:50:47.063Z,9.89
2018-04-14T00:51:47.071Z,9.9
2018-04-14T00:52:47.058Z,9.89
2018-04-14T00:53:47.070Z,9.9
2018-04-14T00:54:47.052Z,9.9
2018-04-14T00:55:47.074Z,9.89
2018-04-14T00:56:47.070Z,9.89
2018-04-14T00:57:47.058Z,9.85
2018-04-14T00:58:47.050Z,9.86
2018-04-14T00:59:47.047Z,9.83
2018-04-14T01:00:47.052Z,9.81
2018-04-14T01:01:47.054Z,9.83
2018-04-14T01:02:47.049Z,9.79
2018-04-14T01:03:47.067Z,9.76
2018-04-14T01:04:47.041Z,9.75
2018-04-14T01:05:47.036Z,9.73
2018-04-14T01:06:47.037Z,9.75
2018-04-14T01:07:47.022Z,9.72
2018-04-14T01:08:47.050Z,9.69
2018-04-14T01:09:47.074Z,9.72
2018-04-14T01:10:47.038Z,9.65
2018-04-14T01:11:47.028Z,9.68
2018-04-14T01:12:47.035Z,9.68
2018-04-14T01:13:47.044Z,9.68
2018-04-14T01:14:47.057Z,9.66
2018-04-14T01:15:47.048Z,9.63
2018-04-14T01:16:47.046Z,9.63
2018-04-14T01:17:47.024Z,9.62
2018-04-14T01:18:47.020Z,9.61
2018-04-14T01:19:47.035Z,9.59
2018-04-14T01:20:47.025Z,9.55
2018-04-14T01:21:47.036Z,9.57
2018-04-14T01:22:47.191Z,9.55
2018-04-14T01:23:46.992Z,9.52
2018-04-14T01:24:47.036Z,9.52
2018-04-14T01:25:47.013Z,9.51
2018-04-14T01:26:47.011Z,9.51
2018-04-14T01:27:47.007Z,9.51
2018-04-14T01:28:47.014Z,9.49
2018-04-14T01:29:47.004Z,9.55
2018-04-14T01:30:47.023Z,9.51
2018-04-14T01:31:47.000Z,9.48
2018-04-14T01:32:47.006Z,9.49
2018-04-14T01:33:46.997Z,9.45
2018-04-14T01:34:47.002Z,9.48
2018-04-14T01:35:46.983Z,9.48
2018-04-14T01:36:47.011Z,9.47
2018-04-14T01:37:47.115Z,9.48
2018-04-14T01:38:47.017Z,9.45
2018-04-14T01:39:46.999Z,9.47
2018-04-14T01:40:46.989Z,9.45
2018-04-14T01:41:47.000Z,9.41
2018-04-14T01:42:47.035Z,9.41
2018-04-14T01:43:46.976Z,9.37
2018-04-14T01:44:46.988Z,9.4
2018-04-14T01:45:47.001Z,9.38
2018-04-14T01:46:46.984Z,9.37
2018-04-14T01:47:47.025Z,9.37
2018-04-14T01:48:47.001Z,9.35
2018-04-14T01:49:46.967Z,9.35
2018-04-14T01:50:47.101Z,9.37
2018-04-14T01:51:46.980Z,9.37
2018-04-14T01:52:46.983Z,9.37
2018-04-14T01:53:46.957Z,9.37
2018-04-14T01:54:47.001Z,9.34
2018-04-14T01:55:46.970Z,9.34
2018-04-14T01:56:47.031Z,9.33
2018-04-14T01:57:47.088Z,9.34
2018-04-14T01:58:46.949Z,9.27
2018-04-14T01:59:46.971Z,9.26
2018-04-14T02:00:46.956Z,9.24
2018-04-14T02:01:46.953Z,9.24
2018-04-14T02:02:46.948Z,9.23
2018-04-14T02:03:47.040Z,9.2
2018-04-14T02:04:46.957Z,9.19
2018-04-14T02:05:46.947Z,9.16
2018-04-14T02:06:46.966Z,9.14
2018-04-14T02:07:46.968Z,9.14
2018-04-14T02:08:46.946Z,9.1
2018-04-14T02:09:46.930Z,9.13
2018-04-14T02:10:46.965Z,9.11
2018-04-14T02:11:46.935Z,9.09
2018-04-14T02:12:46.944Z,9.06
2018-04-14T02:13:46.933Z,9.06
2018-04-14T02:14:46.935Z,9.03
2018-04-14T02:15:46.938Z,8.98
2018-04-14T02:16:46.936Z,9
2018-04-14T02:17:46.946Z,8.96
2018-04-14T02:18:46.939Z,8.99
2018-04-14T02:19:46.931Z,8.92
2018-04-14T02:20:47.101Z,8.91
2018-04-14T02:21:46.938Z,8.89
2018-04-14T02:22:46.915Z,8.92
2018-04-14T02:23:46.909Z,8.91
2018-04-14T02:24:46.920Z,8.91
2018-04-14T02:25:46.935Z,8.95
2018-04-14T02:26:46.919Z,8.89
2018-04-14T02:27:46.923Z,8.88
2018-04-14T02:28:46.956Z,8.85
2018-04-14T02:29:46.997Z,8.85
2018-04-14T02:30:46.993Z,8.85
2018-04-14T02:31:46.933Z,8.88
2018-04-14T02:32:46.976Z,8.88
2018-04-14T02:33:46.916Z,8.88
2018-04-14T02:34:46.947Z,8.86
2018-04-14T02:35:46.929Z,8.85
2018-04-14T02:36:47.020Z,8.78
2018-04-14T02:37:46.909Z,8.78
2018-04-14T02:38:46.895Z,8.79
2018-04-14T02:39:46.925Z,8.74
2018-04-14T02:40:46.961Z,8.74
2018-04-14T02:41:46.969Z,8.69
2018-04-14T02:42:46.928Z,8.71
2018-04-14T02:43:46.913Z,8.74
2018-04-14T02:44:46.895Z,8.72
2018-04-14T02:45:46.932Z,8.74
2018-04-14T02:46:46.912Z,8.74
2018-04-14T02:47:47.015Z,8.74
2018-04-14T02:48:46.893Z,8.75
2018-04-14T02:49:46.890Z,8.76
2018-04-14T02:50:46.893Z,8.74
2018-04-14T02:51:46.899Z,8.72
2018-04-14T02:52:46.919Z,8.69
2018-04-14T02:53:46.887Z,8.66
2018-04-14T02:54:46.921Z,8.68
2018-04-14T02:55:46.908Z,8.66
2018-04-14T02:56:46.884Z,8.64
2018-04-14T02:57:46.879Z,8.61
2018-04-14T02:58:46.878Z,8.59
2018-04-14T02:59:46.885Z,8.58
2018-04-14T03:00:46.902Z,8.57
2018-04-14T03:01:46.868Z,8.58
2018-04-14T03:02:46.914Z,8.54
2018-04-14T03:03:46.880Z,8.57
2018-04-14T03:04:46.976Z,8.52
2018-04-14T03:05:46.866Z,8.48
2018-04-14T03:06:46.932Z,8.45
2018-04-14T03:07:46.863Z,8.49
2018-04-14T03:08:46.921Z,8.45
2018-04-14T03:09:46.991Z,8.49
2018-04-14T03:10:46.853Z,8.49
2018-04-14T03:11:46.864Z,8.47
2018-04-14T03:12:46.844Z,8.48
2018-04-14T03:13:46.845Z,8.45
2018-04-14T03:14:46.853Z,8.44
2018-04-14T03:15:46.890Z,8.44
2018-04-14T03:16:46.842Z,8.44
2018-04-14T03:17:46.854Z,8.45
2018-04-14T03:18:46.853Z,8.44
2018-04-14T03:19:46.829Z,8.41
2018-04-14T03:20:46.841Z,8.38
2018-04-14T03:21:46.823Z,8.4
2018-04-14T03:22:46.829Z,8.37
2018-04-14T03:23:46.854Z,8.36
2018-04-14T03:24:46.851Z,8.34
2018-04-14T03:25:46.833Z,8.31
2018-04-14T03:26:46.824Z,8.31
2018-04-14T03:27:46.826Z,8.33
2018-04-14T03:28:46.853Z,8.33
2018-04-14T03:29:46.820Z,8.31
2018-04-14T03:30:46.836Z,8.27
2018-04-14T03:31:46.829Z,8.27
2018-04-14T03:32:46.838Z,8.27
2018-04-14T03:33:46.811Z,8.21
2018-04-14T03:34:46.810Z,8.2
2018-04-14T03:35:46.827Z,8.21
2018-04-14T03:36:46.808Z,8.19
2018-04-14T03:37:46.922Z,8.16
2018-04-14T03:38:46.859Z,8.14
2018-04-14T03:39:46.824Z,8.16
2018-04-14T03:40:46.802Z,8.16
2018-04-14T03:41:46.797Z,8.1
2018-04-14T03:42:46.804Z,8.1
2018-04-14T03:43:46.789Z,8.12
2018-04-14T03:44:46.791Z,8.12
2018-04-14T03:45:46.825Z,8.12
2018-04-14T03:46:46.801Z,8.08
2018-04-14T03:47:46.890Z,8.08
2018-04-14T03:48:46.796Z,8.08
2018-04-14T03:49:46.785Z,8.05
2018-04-14T03:50:46.799Z,8.06
2018-04-14T03:51:46.795Z,8.05
2018-04-14T03:52:46.803Z,8.06
2018-04-14T03:53:46.776Z,8.05
2018-04-14T03:54:46.778Z,8.08
2018-04-14T03:55:46.809Z,8.08
2018-04-14T03:56:46.843Z,8.05
2018-04-14T03:57:46.814Z,8.03
2018-04-14T03:58:46.825Z,8.02
2018-04-14T03:59:46.763Z,8.06
2018-04-14T04:00:46.783Z,8.05
2018-04-14T04:01:46.763Z,8.05
2018-04-14T04:02:46.831Z,8.02
2018-04-14T04:03:46.769Z,8.03
2018-04-14T04:04:46.764Z,8.06
2018-04-14T04:05:46.776Z,8.05
2018-04-14T04:06:46.753Z,8.05
2018-04-14T04:07:46.879Z,8.03
2018-04-14T04:08:47.128Z,8.06
2018-04-14T04:09:46.820Z,8.02
2018-04-14T04:10:46.780Z,8.02
2018-04-14T04:11:46.758Z,8.01
2018-04-14T04:12:46.748Z,7.99
2018-04-14T04:13:46.755Z,7.99
2018-04-14T04:14:46.794Z,7.99
2018-04-14T04:15:46.763Z,7.98
2018-04-14T04:16:46.926Z,7.98
2018-04-14T04:17:46.737Z,8.01
2018-04-14T04:18:46.740Z,8.01
2018-04-14T04:19:46.756Z,7.99
2018-04-14T04:20:46.881Z,7.98
2018-04-14T04:21:46.803Z,7.95
2018-04-14T04:22:46.804Z,7.93
2018-04-14T04:23:46.769Z,7.89
2018-04-14T04:24:46.722Z,7.89
2018-04-14T04:25:46.776Z,7.91
2018-04-14T04:26:46.720Z,7.88
2018-04-14T04:27:46.737Z,7.85
2018-04-14T04:28:46.725Z,7.82
2018-04-14T04:29:46.747Z,7.78
2018-04-14T04:30:46.758Z,7.81
2018-04-14T04:31:46.737Z,7.78
2018-04-14T04:32:46.752Z,7.77
2018-04-14T04:33:46.749Z,7.77
2018-04-14T04:34:46.877Z,7.72
2018-04-14T04:35:46.731Z,7.74
2018-04-14T04:36:46.712Z,7.71
2018-04-14T04:37:46.911Z,7.69
2018-04-14T04:38:46.781Z,7.71
2018-04-14T04:39:46.742Z,7.68
2018-04-14T04:40:46.706Z,7.67
2018-04-14T04:41:46.729Z,7.67
2018-04-14T04:42:46.847Z,7.62
2018-04-14T04:43:46.718Z,7.61
2018-04-14T04:44:46.713Z,7.59
2018-04-14T04:45:46.778Z,7.62
2018-04-14T04:46:46.721Z,7.64
2018-04-14T04:47:46.722Z,7.62
2018-04-14T04:48:46.829Z,7.64
2018-04-14T04:49:46.691Z,7.64
2018-04-14T04:50:46.680Z,7.65
2018-04-14T04:51:46.693Z,7.67
2018-04-14T04:52:46.700Z,7.67
2018-04-14T04:53:46.688Z,7.67
2018-04-14T04:54:46.791Z,7.68
2018-04-14T04:55:46.694Z,7.67
2018-04-14T04:56:46.723Z,7.67
2018-04-14T04:57:46.691Z,7.69
2018-04-14T04:58:46.746Z,7.69
2018-04-14T04:59:46.672Z,7.71
2018-04-14T05:00:46.716Z,7.68
2018-04-14T05:01:46.675Z,7.74
2018-04-14T05:02:46.782Z,7.68
2018-04-14T05:03:46.679Z,7.74
2018-04-14T05:04:46.669Z,7.72
2018-04-14T05:05:46.670Z,7.71
2018-04-14T05:06:46.669Z,7.72
2018-04-14T05:07:46.847Z,7.72
2018-04-14T05:08:46.670Z,7.75
2018-04-14T05:09:46.650Z,7.77
2018-04-14T05:10:46.687Z,7.77
2018-04-14T05:11:46.667Z,7.75
2018-04-14T05:12:46.669Z,7.77
2018-04-14T05:13:46.643Z,7.78
2018-04-14T05:14:46.655Z,7.77
2018-04-14T05:15:46.666Z,7.77
2018-04-14T05:16:46.659Z,7.77
2018-04-14T05:17:46.687Z,7.77
2018-04-14T05:18:46.650Z,7.78
2018-04-14T05:19:46.636Z,7.8
2018-04-14T05:20:46.657Z,7.77
2018-04-14T05:21:46.668Z,7.78
2018-04-14T05:22:46.653Z,7.78
2018-04-14T05:23:46.625Z,7.81
2018-04-14T05:24:46.731Z,7.8
2018-04-14T05:25:46.641Z,7.78
2018-04-14T05:26:46.717Z,7.8
2018-04-14T05:27:46.637Z,7.81
2018-04-14T05:28:46.630Z,7.81
2018-04-14T05:29:46.646Z,7.8
2018-04-14T05:30:46.644Z,7.82
2018-04-14T05:31:46.625Z,7.82
2018-04-14T05:32:46.652Z,7.84
2018-04-14T05:33:46.674Z,7.82
2018-04-14T05:34:46.744Z,7.84
2018-04-14T05:35:46.666Z,7.85
2018-04-14T05:36:46.666Z,7.88
2018-04-14T05:37:46.640Z,7.89
2018-04-14T05:38:46.619Z,7.91
2018-04-14T05:39:46.621Z,7.89
2018-04-14T05:40:46.621Z,7.92
2018-04-14T05:41:46.618Z,7.93
2018-04-14T05:42:46.722Z,7.96
2018-04-14T05:43:46.600Z,7.98
2018-04-14T05:44:46.620Z,7.98
2018-04-14T05:45:46.628Z,7.99
2018-04-14T05:46:46.610Z,8.01
2018-04-14T05:47:46.632Z,8.01
2018-04-14T05:48:46.633Z,8.03
2018-04-14T05:49:46.608Z,8.03
2018-04-14T05:50:46.604Z,8.06
2018-04-14T05:51:46.600Z,8.08
2018-04-14T05:52:46.615Z,8.08
2018-04-14T05:53:46.605Z,8.12
2018-04-14T05:54:46.601Z,8.1
2018-04-14T05:55:46.644Z,8.14
2018-04-14T05:56:46.628Z,8.17
2018-04-14T05:57:46.747Z,8.17
2018-04-14T05:58:46.587Z,8.2
2018-04-14T05:59:46.688Z,8.23
2018-04-14T06:00:46.704Z,8.24
2018-04-14T06:01:46.589Z,8.23
2018-04-14T06:02:46.612Z,8.29
2018-04-14T06:03:46.570Z,8.29
2018-04-14T06:04:46.592Z,8.33
2018-04-14T06:05:46.571Z,8.34
2018-04-14T06:06:46.593Z,8.37
2018-04-14T06:07:46.590Z,8.38
2018-04-14T06:08:46.926Z,8.43
2018-04-14T06:09:46.562Z,8.44
2018-04-14T06:10:46.626Z,8.45
2018-04-14T06:11:46.563Z,8.48
2018-04-14T06:12:46.594Z,8.49
2018-04-14T06:13:46.608Z,8.52
2018-04-14T06:14:46.572Z,8.54
2018-04-14T06:15:46.597Z,8.55
2018-04-14T06:16:46.578Z,8.61
2018-04-14T06:17:46.579Z,8.64
2018-04-14T06:18:46.579Z,8.64
2018-04-14T06:19:46.609Z,8.65
2018-04-14T06:20:46.566Z,8.68
2018-04-14T06:21:46.569Z,8.69
2018-04-14T06:22:46.573Z,8.74
2018-04-14T06:23:46.590Z,8.76
2018-04-14T06:24:46.570Z,8.79
2018-04-14T06:25:46.546Z,8.8
2018-04-14T06:26:46.559Z,8.82
2018-04-14T06:27:46.552Z,8.85
2018-04-14T06:28:46.568Z,8.88
2018-04-14T06:29:46.968Z,8.91
2018-04-14T06:30:46.525Z,8.96
2018-04-14T06:31:46.788Z,8.98
2018-04-14T06:32:46.575Z,9.02
2018-04-14T06:33:46.635Z,9.04
2018-04-14T06:34:46.557Z,9.03
2018-04-14T06:35:46.529Z,9.1
2018-04-14T06:36:46.515Z,9.11
2018-04-14T06:37:46.546Z,9.16
2018-04-14T06:38:46.530Z,9.19
2018-04-14T06:39:46.565Z,9.19
2018-04-14T06:40:46.531Z,9.2
2018-04-14T06:41:46.514Z,9.23
2018-04-14T06:42:46.585Z,9.24
2018-04-14T06:43:46.649Z,9.24
2018-04-14T06:44:46.529Z,9.27
2018-04-14T06:45:46.537Z,9.34
2018-04-14T06:46:46.531Z,9.38
2018-04-14T06:47:46.543Z,9.4
2018-04-14T06:48:46.528Z,9.45
2018-04-14T06:49:46.538Z,9.45
2018-04-14T06:50:46.590Z,9.49
2018-04-14T06:51:46.525Z,9.52
2018-04-14T06:52:46.497Z,9.55
2018-04-14T06:53:46.500Z,9.55
2018-04-14T06:54:46.508Z,9.59
2018-04-14T06:55:46.659Z,9.61
2018-04-14T06:56:46.595Z,9.65
2018-04-14T06:57:46.507Z,9.68
2018-04-14T06:58:46.635Z,9.69
2018-04-14T06:59:46.497Z,9.69
2018-04-14T07:00:46.474Z,9.72
2018-04-14T07:01:46.486Z,9.76
2018-04-14T07:02:46.483Z,9.79
2018-04-14T07:03:46.495Z,9.85
2018-04-14T07:04:46.584Z,9.88
2018-04-14T07:05:46.541Z,9.9
2018-04-14T07:06:46.537Z,9.92
2018-04-14T07:07:46.476Z,9.96
2018-04-14T07:08:46.483Z,9.96
2018-04-14T07:09:46.494Z,10.02
2018-04-14T07:10:46.487Z,10.04
2018-04-14T07:11:46.468Z,10.09
2018-04-14T07:12:46.465Z,10.09
2018-04-14T07:13:46.463Z,10.14
2018-04-14T07:14:46.475Z,10.16
2018-04-14T07:15:46.456Z,10.17
2018-04-14T07:16:46.492Z,10.21
2018-04-14T07:17:46.470Z,10.24
2018-04-14T07:18:46.479Z,10.28
2018-04-14T07:19:46.463Z,10.32
2018-04-14T07:20:46.537Z,10.37
2018-04-14T07:21:46.521Z,10.42
2018-04-14T07:22:46.496Z,10.45
2018-04-14T07:23:46.458Z,10.53
2018-04-14T07:24:46.444Z,10.53
2018-04-14T07:25:46.451Z,10.59
2018-04-14T07:26:46.597Z,10.61
2018-04-14T07:27:46.458Z,10.65
2018-04-14T07:28:46.440Z,10.68
2018-04-14T07:29:46.506Z,10.73
2018-04-14T07:30:46.436Z,10.73
2018-04-14T07:31:46.429Z,10.79
2018-04-14T07:32:46.436Z,10.84
2018-04-14T07:33:46.453Z,10.86
2018-04-14T07:34:46.492Z,10.97
2018-04-14T07:35:46.795Z,11.01
2018-04-14T07:36:46.446Z,11
2018-04-14T07:37:46.436Z,11.06
2018-04-14T07:38:46.485Z,11.07
2018-04-14T07:39:46.415Z,11.1
2018-04-14T07:40:46.459Z,11.12
2018-04-14T07:41:46.503Z,11.18
2018-04-14T07:42:46.601Z,11.25
2018-04-14T07:43:46.431Z,11.31
2018-04-14T07:44:46.440Z,11.35
2018-04-14T07:45:46.412Z,11.41
2018-04-14T07:46:46.440Z,11.44
2018-04-14T07:47:46.497Z,11.49
2018-04-14T07:48:46.420Z,11.54
2018-04-14T07:49:46.440Z,11.58
2018-04-14T07:50:46.434Z,11.64
2018-04-14T07:51:46.419Z,11.68
2018-04-14T07:52:46.430Z,11.68
2018-04-14T07:53:46.413Z,11.72
2018-04-14T07:54:46.440Z,11.75
2018-04-14T07:55:46.413Z,11.79
2018-04-14T07:56:46.407Z,11.83
2018-04-14T07:57:46.597Z,11.9
2018-04-14T07:58:46.396Z,11.92
2018-04-14T07:59:46.614Z,11.93
2018-04-14T08:00:46.478Z,11.98
2018-04-14T08:01:46.525Z,12
2018-04-14T08:02:46.415Z,12.01
2018-04-14T08:03:46.376Z,12.11
2018-04-14T08:04:46.434Z,12.17
2018-04-14T08:05:46.404Z,12.18
2018-04-14T08:06:46.407Z,12.24
2018-04-14T08:07:46.389Z,12.21
2018-04-14T08:08:46.409Z,12.25
2018-04-14T08:09:46.432Z,12.34
2018-04-14T08:10:46.388Z,12.38
2018-04-14T08:11:46.406Z,12.44
2018-04-14T08:12:46.410Z,12.48
2018-04-14T08:13:46.393Z,12.53
2018-04-14T08:14:46.400Z,12.56
2018-04-14T08:15:46.418Z,12.59
2018-04-14T08:16:46.420Z,12.62
2018-04-14T08:17:46.414Z,12.65
2018-04-14T08:18:46.367Z,12.7
2018-04-14T08:19:46.374Z,12.69
2018-04-14T08:20:46.364Z,12.72
2018-04-14T08:21:46.398Z,12.76
2018-04-14T08:22:46.355Z,12.77
2018-04-14T08:23:46.355Z,12.8
2018-04-14T08:24:46.553Z,12.83
2018-04-14T08:25:46.440Z,12.87
2018-04-14T08:26:46.378Z,12.82
2018-04-14T08:27:46.365Z,12.8
2018-04-14T08:28:46.371Z,12.82
2018-04-14T08:29:46.365Z,12.9
2018-04-14T08:30:46.380Z,12.93
2018-04-14T08:31:46.405Z,13
2018-04-14T08:32:46.375Z,13.04
2018-04-14T08:33:46.359Z,13.1
2018-04-14T08:34:46.358Z,13.11
2018-04-14T08:35:46.362Z,13.15
2018-04-14T08:36:46.588Z,13.18
2018-04-14T08:37:46.575Z,13.27
2018-04-14T08:38:46.449Z,13.31
2018-04-14T08:39:46.463Z,13.31
2018-04-14T08:40:46.490Z,13.29
2018-04-14T08:41:46.364Z,13.29
2018-04-14T08:42:46.500Z,13.34
2018-04-14T08:43:46.335Z,13.32
2018-04-14T08:44:46.390Z,13.39
2018-04-14T08:45:46.316Z,13.46
2018-04-14T08:46:46.328Z,13.46
2018-04-14T08:47:46.339Z,13.5
2018-04-14T08:48:46.317Z,13.55
2018-04-14T08:49:46.328Z,13.59
2018-04-14T08:50:46.309Z,13.57
2018-04-14T08:51:46.373Z,13.52
2018-04-14T08:52:46.333Z,13.52
2018-04-14T08:53:46.323Z,13.59
2018-04-14T08:54:46.321Z,13.69
2018-04-14T08:55:46.322Z,13.74
2018-04-14T08:56:46.479Z,13.8
2018-04-14T08:57:46.300Z,13.87
2018-04-14T08:58:46.352Z,13.96
2018-04-14T08:59:46.308Z,13.97
2018-04-14T09:00:46.416Z,13.98
2018-04-14T09:01:46.356Z,13.98
2018-04-14T09:02:46.328Z,14
2018-04-14T09:03:46.317Z,14.04
2018-04-14T09:04:46.346Z,14.07
2018-04-14T09:05:46.373Z,14.05
2018-04-14T09:06:46.381Z,14.08
2018-04-14T09:07:46.338Z,14.08
2018-04-14T09:08:46.375Z,14.08
2018-04-14T09:09:46.307Z,14.12
2018-04-14T09:10:46.311Z,14.17
2018-04-14T09:11:46.332Z,14.17
2018-04-14T09:12:46.300Z,14.15
2018-04-14T09:13:46.297Z,14.15
2018-04-14T09:14:46.294Z,14.18
2018-04-14T09:15:46.287Z,14.18
2018-04-14T09:16:46.339Z,14.24
2018-04-14T09:17:46.302Z,14.32
2018-04-14T09:18:46.275Z,14.29
2018-04-14T09:19:46.295Z,14.29
2018-04-14T09:20:46.285Z,14.32
2018-04-14T09:21:46.332Z,14.42
2018-04-14T09:22:46.350Z,14.49
2018-04-14T09:23:46.278Z,14.52
2018-04-14T09:24:46.286Z,14.6
2018-04-14T09:25:46.278Z,14.64
2018-04-14T09:26:46.306Z,14.6
2018-04-14T09:27:46.330Z,14.64
2018-04-14T09:28:46.292Z,14.63
2018-04-14T09:29:46.277Z,14.67
2018-04-14T09:30:46.283Z,14.73
2018-04-14T09:31:46.285Z,14.74
2018-04-14T09:32:47.138Z,14.83
2018-04-14T09:33:46.288Z,14.86
2018-04-14T09:34:46.277Z,14.88
2018-04-14T09:35:46.260Z,14.95
2018-04-14T09:36:46.267Z,15.04
2018-04-14T09:37:46.273Z,15.04
2018-04-14T09:38:46.287Z,15.09
2018-04-14T09:39:46.265Z,15.15
2018-04-14T09:40:46.297Z,15.12
2018-04-14T09:41:46.253Z,15.11
2018-04-14T09:42:46.315Z,15.08
2018-04-14T09:43:46.297Z,15.17
2018-04-14T09:44:47.349Z,15.26
2018-04-14T09:45:46.223Z,15.29
2018-04-14T09:46:46.308Z,15.32
2018-04-14T09:47:46.236Z,15.38
2018-04-14T09:48:46.241Z,15.43
2018-04-14T09:49:46.224Z,15.45
2018-04-14T09:50:46.258Z,15.46
2018-04-14T09:51:46.271Z,15.53
2018-04-14T09:52:46.268Z,15.59
2018-04-14T09:53:47.034Z,15.67
2018-04-14T09:54:46.210Z,15.71
2018-04-14T09:55:47.327Z,15.7
2018-04-14T09:56:47.735Z,15.76
2018-04-14T09:57:46.214Z,15.82
2018-04-14T09:58:46.216Z,15.87
2018-04-14T09:59:46.207Z,15.88
2018-04-14T10:00:46.217Z,15.85
2018-04-14T10:01:46.221Z,15.77
2018-04-14T10:02:46.247Z,15.82
2018-04-14T10:03:46.285Z,15.88
2018-04-14T10:04:46.290Z,15.91
2018-04-14T10:05:46.206Z,15.94
2018-04-14T10:06:46.257Z,15.91
2018-04-14T10:07:46.204Z,15.99
2018-04-14T10:08:46.244Z,15.99
2018-04-14T10:09:46.210Z,16.07
2018-04-14T10:10:46.244Z,16.08
2018-04-14T10:11:46.318Z,16.12
2018-04-14T10:12:46.329Z,16.09
2018-04-14T10:13:46.262Z,16.14
2018-04-14T10:14:46.331Z,16.14
2018-04-14T10:15:46.259Z,16.14
2018-04-14T10:16:46.478Z,16.21
2018-04-14T10:17:46.288Z,16.24
2018-04-14T10:18:46.372Z,16.32
2018-04-14T10:19:46.424Z,16.31
2018-04-14T10:20:46.207Z,16.25
2018-04-14T10:21:46.199Z,16.22
2018-04-14T10:22:46.207Z,16.24
2018-04-14T10:23:46.201Z,16.28
2018-04-14T10:24:46.204Z,16.37
2018-04-14T10:25:46.181Z,16.42
2018-04-14T10:26:46.200Z,16.46
2018-04-14T10:27:46.198Z,16.5
2018-04-14T10:28:46.203Z,16.56
2018-04-14T10:29:46.195Z,16.57
2018-04-14T10:30:46.187Z,16.47
2018-04-14T10:31:46.207Z,16.46
2018-04-14T10:32:46.189Z,16.5
2018-04-14T10:33:46.174Z,16.53
2018-04-14T10:34:46.191Z,16.53
2018-04-14T10:35:46.189Z,16.62
2018-04-14T10:36:46.172Z,16.71
2018-04-14T10:37:46.512Z,16.75
2018-04-14T10:38:46.198Z,16.77
2018-04-14T10:39:46.182Z,16.83
2018-04-14T10:40:46.192Z,16.87
2018-04-14T10:41:46.180Z,16.92
2018-04-14T10:42:46.160Z,16.99
2018-04-14T10:43:46.208Z,16.95
2018-04-14T10:44:46.157Z,16.91
2018-04-14T10:45:46.156Z,16.97
2018-04-14T10:46:46.164Z,17.04
2018-04-14T10:47:46.157Z,17.02
2018-04-14T10:48:46.193Z,17.07
2018-04-14T10:49:46.169Z,17.15
2018-04-14T10:50:46.157Z,17.07
2018-04-14T10:51:46.169Z,17.09
2018-04-14T10:52:46.169Z,17.15
2018-04-14T10:53:46.175Z,17.09
2018-04-14T10:54:46.149Z,17.18
2018-04-14T10:55:46.238Z,17.25
2018-04-14T10:56:46.146Z,17.23
2018-04-14T10:57:46.139Z,17.26
2018-04-14T10:58:46.276Z,17.26
2018-04-14T10:59:46.170Z,17.29
2018-04-14T11:00:46.122Z,17.32
2018-04-14T11:01:46.188Z,17.37
2018-04-14T11:02:46.149Z,17.44
2018-04-14T11:03:46.483Z,17.52
2018-04-14T11:04:46.180Z,17.57
2018-04-14T11:05:46.139Z,17.6
2018-04-14T11:06:46.162Z,17.63
2018-04-14T11:07:46.153Z,17.67
2018-04-14T11:08:46.239Z,17.63
2018-04-14T11:09:46.185Z,17.61
2018-04-14T11:10:46.137Z,17.67
2018-04-14T11:11:46.296Z,17.67
2018-04-14T11:12:46.160Z,17.66
2018-04-14T11:13:46.151Z,17.7
2018-04-14T11:14:46.132Z,17.74
2018-04-14T11:15:46.121Z,17.78
2018-04-14T11:16:46.174Z,17.84
2018-04-14T11:17:46.131Z,17.88
2018-04-14T11:18:46.108Z,17.88
2018-04-14T11:19:46.231Z,17.76
2018-04-14T11:20:46.160Z,17.85
2018-04-14T11:21:46.087Z,17.81
2018-04-14T11:22:46.106Z,17.84
2018-04-14T11:23:46.103Z,17.8
2018-04-14T11:24:46.137Z,17.87
2018-04-14T11:25:46.121Z,17.88
2018-04-14T11:26:46.135Z,17.95
2018-04-14T11:27:46.144Z,17.98
2018-04-14T11:28:46.108Z,17.99
2018-04-14T11:29:46.118Z,18.02
2018-04-14T11:30:46.180Z,18.13
2018-04-14T11:31:46.096Z,18.19
2018-04-14T11:32:46.084Z,18.23
2018-04-14T11:33:46.080Z,18.3
2018-04-14T11:34:46.167Z,18.36
2018-04-14T11:35:46.201Z,18.36
2018-04-14T11:36:46.090Z,18.39
2018-04-14T11:37:46.085Z,18.44
2018-04-14T11:38:46.094Z,18.47
2018-04-14T11:39:46.134Z,18.36
2018-04-14T11:40:46.089Z,18.39
2018-04-14T11:41:46.090Z,18.43
2018-04-14T11:42:46.090Z,18.47
2018-04-14T11:43:46.087Z,18.53
2018-04-14T11:44:46.109Z,18.63
2018-04-14T11:45:46.079Z,18.74
2018-04-14T11:46:46.102Z,18.75
2018-04-14T11:47:46.086Z,18.68
2018-04-14T11:48:46.069Z,18.71
2018-04-14T11:49:46.098Z,18.75
2018-04-14T11:50:46.950Z,18.75
2018-04-14T11:51:46.158Z,18.78
2018-04-14T11:52:46.055Z,18.82
2018-04-14T11:53:46.100Z,18.88
2018-04-14T11:54:46.096Z,18.88
2018-04-14T11:55:46.061Z,18.94
2018-04-14T11:56:46.115Z,18.91
2018-04-14T11:57:46.052Z,18.92
2018-04-14T11:58:46.068Z,18.97
2018-04-14T11:59:46.372Z,18.99
2018-04-14T12:00:46.061Z,19.02
2018-04-14T12:01:46.069Z,19.03
2018-04-14T12:02:46.170Z,19.1
2018-04-14T12:03:46.318Z,19.09
2018-04-14T12:04:46.069Z,18.95
2018-04-14T12:05:46.104Z,18.94
2018-04-14T12:06:46.053Z,19.01
2018-04-14T12:07:46.064Z,19.09
2018-04-14T12:08:46.130Z,19.17
2018-04-14T12:09:46.161Z,19.22
2018-04-14T12:10:46.241Z,19.32
2018-04-14T12:11:46.063Z,19.32
2018-04-14T12:12:46.029Z,19.33
2018-04-14T12:13:46.047Z,19.3
2018-04-14T12:14:47.744Z,19.33
2018-04-14T12:15:48.226Z,19.4
2018-04-14T12:16:46.144Z,19.49
2018-04-14T12:17:48.072Z,19.44
2018-04-14T12:18:46.164Z,19.47
2018-04-14T12:19:46.903Z,19.43
2018-04-14T12:20:46.048Z,19.42
2018-04-14T12:21:46.038Z,19.33
2018-04-14T12:22:46.045Z,19.43
2018-04-14T12:23:46.046Z,19.46
2018-04-14T12:24:46.048Z,19.58
2018-04-14T12:25:46.087Z,19.65
2018-04-14T12:26:46.122Z,19.61
2018-04-14T12:27:46.059Z,19.71
2018-04-14T12:28:46.060Z,19.72
2018-04-14T12:29:46.190Z,19.65
2018-04-14T12:30:46.011Z,19.72
2018-04-14T12:31:46.021Z,19.77
2018-04-14T12:32:46.013Z,19.79
2018-04-14T12:33:46.321Z,19.74
2018-04-14T12:34:46.889Z,19.74
2018-04-14T12:35:47.818Z,19.78
2018-04-14T12:36:45.998Z,19.85
2018-04-14T12:37:46.020Z,19.82
2018-04-14T12:38:46.010Z,19.86
2018-04-14T12:39:46.036Z,19.84
2018-04-14T12:40:46.019Z,19.95
2018-04-14T12:41:46.018Z,20.06
2018-04-14T12:42:46.036Z,20.06
2018-04-14T12:43:46.020Z,20.08
2018-04-14T12:44:45.990Z,20.17
2018-04-14T12:45:46.017Z,20.15
2018-04-14T12:46:46.019Z,20.24
2018-04-14T12:47:45.993Z,20.27
2018-04-14T12:48:46.000Z,20.24
2018-04-14T12:49:45.989Z,20.22
2018-04-14T12:50:46.031Z,20.29
2018-04-14T12:51:45.990Z,20.24
2018-04-14T12:52:45.975Z,20.26
2018-04-14T12:53:45.993Z,20.3
2018-04-14T12:54:46.000Z,20.37
2018-04-14T12:55:46.115Z,20.46
2018-04-14T12:56:46.002Z,20.51
2018-04-14T12:57:46.019Z,20.55
2018-04-14T12:58:45.977Z,20.58
2018-04-14T12:59:46.009Z,20.64
2018-04-14T13:00:46.031Z,20.64
2018-04-14T13:01:46.026Z,20.74
2018-04-14T13:02:45.981Z,20.82
2018-04-14T13:03:45.996Z,20.79
2018-04-14T13:04:45.979Z,20.81
2018-04-14T13:05:46.089Z,20.78
2018-04-14T13:06:45.980Z,20.7
2018-04-14T13:07:46.080Z,20.78